createdAt,value
2023-04-15T00:01:49.442Z,2.63
2023-04-15T00:04:34.861Z,2.90
2023-04-15T00:07:20.404Z,2.95
2023-04-15T00:10:06.151Z,2.92
2023-04-15T00:12:52.483Z,1.88
2023-04-15T00:15:38.119Z,2.65
2023-04-15T00:18:24.721Z,4.32
2023-04-15T00:21:10.385Z,2.97
2023-04-15T00:23:55.959Z,2.20
2023-04-15T00:26:41.330Z,3.30
2023-04-15T00:29:26.758Z,4.13
2023-04-15T00:32:12.156Z,2.15
2023-04-15T00:34:57.785Z,4.95
2023-04-15T00:37:44.856Z,2.50
2023-04-15T00:40:31.510Z,3.20
2023-04-15T00:43:17.645Z,2.90
2023-04-15T00:46:05.328Z,3.70
2023-04-15T00:48:51.910Z,2.38
2023-04-15T00:51:37.826Z,1.55
2023-04-15T00:54:23.382Z,4.45
2023-04-15T00:57:08.996Z,2.42
2023-04-15T00:59:56.238Z,4.07
2023-04-15T01:02:41.467Z,2.45
2023-04-15T01:05:27.141Z,1.90
2023-04-15T01:08:12.654Z,2.63
2023-04-15T01:11:01.542Z,2.33
2023-04-15T01:13:47.707Z,2.20
2023-04-15T01:16:33.422Z,2.05
2023-04-15T01:19:19.074Z,3.38
2023-04-15T01:22:05.806Z,2.17
2023-04-15T01:25:13.199Z,2.08
2023-04-15T01:27:59.312Z,2.08
2023-04-15T01:30:47.089Z,5.93
2023-04-15T01:33:32.511Z,2.00
2023-04-15T01:36:18.066Z,4.00
2023-04-15T01:39:04.486Z,4.45
2023-04-15T01:41:49.816Z,3.83
2023-04-15T01:44:35.697Z,5.05
2023-04-15T01:47:21.733Z,3.08
2023-04-15T01:50:07.522Z,3.15
2023-04-15T01:52:53.348Z,2.53
2023-04-15T01:55:39.287Z,4.38
2023-04-15T01:58:25.077Z,2.40
2023-04-15T02:01:11.527Z,4.80
2023-04-15T02:03:57.261Z,2.28
2023-04-15T02:06:43.876Z,3.97
2023-04-15T02:09:30.085Z,2.83
2023-04-15T02:12:15.239Z,3.10
2023-04-15T02:15:00.943Z,4.22
2023-04-15T02:17:51.068Z,2.22
2023-04-15T02:20:38.050Z,2.72
2023-04-15T02:23:23.309Z,2.97
2023-04-15T02:26:08.916Z,1.80
2023-04-15T02:28:55.258Z,1.75
2023-04-15T02:31:42.274Z,3.63
2023-04-15T02:34:27.948Z,2.60
2023-04-15T02:37:14.292Z,3.55
2023-04-15T02:40:00.062Z,2.80
2023-04-15T02:42:45.688Z,3.20
2023-04-15T02:45:30.957Z,3.90
2023-04-15T02:48:18.970Z,3.20
2023-04-15T02:51:23.113Z,2.83
2023-04-15T02:54:08.877Z,4.22
2023-04-15T02:56:56.233Z,2.78
2023-04-15T02:59:41.904Z,1.95
2023-04-15T03:02:27.559Z,3.67
2023-04-15T03:05:14.339Z,1.63
2023-04-15T03:08:01.303Z,2.60
2023-04-15T03:10:47.287Z,5.00
2023-04-15T03:13:32.589Z,3.47
2023-04-15T03:16:18.295Z,4.03
2023-04-15T03:19:04.245Z,3.50
2023-04-15T03:21:50.113Z,6.05
2023-04-15T03:24:35.574Z,4.30
2023-04-15T03:27:21.122Z,3.00
2023-04-15T03:30:07.783Z,3.53
2023-04-15T03:32:53.446Z,3.13
2023-04-15T03:35:41.644Z,3.85
2023-04-15T03:38:27.139Z,3.70
2023-04-15T03:41:13.239Z,3.10
2023-04-15T03:43:58.473Z,5.20
2023-04-15T03:46:43.987Z,4.40
2023-04-15T03:49:29.659Z,2.92
2023-04-15T03:52:15.511Z,8.50
2023-04-15T03:55:00.853Z,3.25
2023-04-15T03:57:46.561Z,2.80
2023-04-15T04:00:32.036Z,3.53
2023-04-15T04:03:17.552Z,4.88
2023-04-15T04:06:02.958Z,3.10
2023-04-15T04:08:48.533Z,3.72
2023-04-15T04:11:34.295Z,3.95
2023-04-15T04:14:19.493Z,4.07
2023-04-15T04:17:05.124Z,3.60
2023-04-15T04:19:50.647Z,2.95
2023-04-15T04:22:40.183Z,3.15
2023-04-15T04:25:25.987Z,5.63
2023-04-15T04:28:11.719Z,3.78
2023-04-15T04:30:57.219Z,5.95
2023-04-15T04:33:42.551Z,4.43
2023-04-15T04:36:28.146Z,2.72
2023-04-15T04:39:13.568Z,2.70
2023-04-15T04:41:58.857Z,3.75
2023-04-15T04:44:44.769Z,3.47
2023-04-15T04:47:30.344Z,2.80
2023-04-15T04:50:15.847Z,5.32
2023-04-15T04:53:01.864Z,3.92
2023-04-15T04:55:47.445Z,4.32
2023-04-15T04:58:32.805Z,2.97
2023-04-15T05:01:18.607Z,3.15
2023-04-15T05:04:05.403Z,2.83
2023-04-15T05:06:51.912Z,3.10
2023-04-15T05:09:37.338Z,3.22
2023-04-15T05:12:22.669Z,4.80
2023-04-15T05:15:08.960Z,3.78
2023-04-15T05:17:54.197Z,3.58
2023-04-15T05:20:39.601Z,3.85
2023-04-15T05:23:25.554Z,3.90
2023-04-15T05:26:10.799Z,4.28
2023-04-15T05:28:56.451Z,5.07
2023-04-15T05:31:42.271Z,3.00
2023-04-15T05:34:28.024Z,4.53
2023-04-15T05:37:13.510Z,2.78
2023-04-15T05:39:59.149Z,2.78
2023-04-15T05:42:44.431Z,7.90
2023-04-15T05:45:29.997Z,4.93
2023-04-15T05:48:15.555Z,4.20
2023-04-15T05:51:01.351Z,4.18
2023-04-15T05:53:46.907Z,4.07
2023-04-15T05:56:32.454Z,6.32
2023-04-15T05:59:17.711Z,5.38
2023-04-15T06:02:03.044Z,4.45
2023-04-15T06:04:48.679Z,3.75
2023-04-15T06:07:34.289Z,2.25
2023-04-15T06:10:21.948Z,5.00
2023-04-15T06:13:08.093Z,3.53
2023-04-15T06:15:54.177Z,5.93
2023-04-15T06:18:40.053Z,9.63
2023-04-15T06:21:25.780Z,3.53
2023-04-15T06:24:12.287Z,4.03
2023-04-15T06:26:57.803Z,4.63
2023-04-15T06:29:43.248Z,4.80
2023-04-15T06:32:28.740Z,3.97
2023-04-15T06:35:14.507Z,2.75
2023-04-15T06:37:59.961Z,6.03
2023-04-15T06:40:46.046Z,4.18
2023-04-15T06:43:31.306Z,3.35
2023-04-15T06:46:16.789Z,3.92
2023-04-15T06:49:02.600Z,2.75
2023-04-15T06:51:48.606Z,3.47
2023-04-15T06:54:34.494Z,4.03
2023-04-15T06:57:19.770Z,3.25
2023-04-15T07:00:06.256Z,4.53
2023-04-15T07:02:52.069Z,3.80
2023-04-15T07:05:38.665Z,3.35
2023-04-15T07:08:24.401Z,4.05
2023-04-15T07:11:09.776Z,2.72
2023-04-15T07:13:55.297Z,2.75
2023-04-15T07:16:40.656Z,2.10
2023-04-15T07:19:26.588Z,2.67
2023-04-15T07:22:12.179Z,3.42
2023-04-15T07:24:57.623Z,4.32
2023-04-15T07:27:43.391Z,3.60
2023-04-15T07:30:29.562Z,5.07
2023-04-15T07:33:14.997Z,3.05
2023-04-15T07:36:01.851Z,2.97
2023-04-15T07:38:47.556Z,2.70
2023-04-15T07:41:33.861Z,2.20
2023-04-15T07:44:19.760Z,3.35
2023-04-15T07:47:05.153Z,3.22
2023-04-15T07:49:51.597Z,4.07
2023-04-15T07:52:39.284Z,3.83
2023-04-15T07:55:26.176Z,4.35
2023-04-15T07:58:13.150Z,5.72
2023-04-15T08:00:58.720Z,6.35
2023-04-15T08:03:44.392Z,3.55
2023-04-15T08:06:29.877Z,2.22
2023-04-15T08:09:15.080Z,2.35
2023-04-15T08:12:01.071Z,3.95
2023-04-15T08:14:47.012Z,4.53
2023-04-15T08:17:32.681Z,2.85
2023-04-15T08:20:17.851Z,2.90
2023-04-15T08:23:04.835Z,4.60
2023-04-15T08:25:50.423Z,3.25
2023-04-15T08:28:39.686Z,3.47
2023-04-15T08:31:30.065Z,3.83
2023-04-15T08:34:16.095Z,4.38
2023-04-15T08:37:01.731Z,4.40
2023-04-15T08:39:47.118Z,2.88
2023-04-15T08:42:37.594Z,3.35
2023-04-15T08:45:23.668Z,3.90
2023-04-15T08:48:12.951Z,5.28
2023-04-15T08:50:59.147Z,2.95
2023-04-15T08:53:47.880Z,4.40
2023-04-15T08:56:33.546Z,6.80
2023-04-15T08:59:21.357Z,3.38
2023-04-15T09:02:07.697Z,5.90
2023-04-15T09:04:53.712Z,5.03
2023-04-15T09:07:39.367Z,3.40
2023-04-15T09:10:24.951Z,4.22
2023-04-15T09:13:10.672Z,1.25
2023-04-15T09:15:58.417Z,0.82
2023-04-15T09:18:44.240Z,0.82
2023-04-15T09:21:32.225Z,0.82
2023-04-15T09:24:17.812Z,0.77
2023-04-15T09:27:04.075Z,0.38
2023-04-15T09:29:51.616Z,0.38
2023-04-15T09:32:51.860Z,0.73
2023-04-15T09:35:37.384Z,0.28
2023-04-15T09:38:22.838Z,0.40
2023-04-15T09:41:19.744Z,0.88
2023-04-15T09:44:05.551Z,0.30
2023-04-15T09:46:50.920Z,0.70
2023-04-15T09:49:36.403Z,0.40
2023-04-15T09:52:21.892Z,2.03
2023-04-15T09:55:07.872Z,1.20
2023-04-15T09:57:53.696Z,0.15
2023-04-15T10:00:39.195Z,0.50
2023-04-15T10:03:29.706Z,1.08
2023-04-15T10:06:16.429Z,0.45
2023-04-15T10:09:02.267Z,0.88
2023-04-15T10:11:50.221Z,0.43
2023-04-15T10:14:38.738Z,1.10
2023-04-15T10:17:30.526Z,0.32
2023-04-15T10:20:19.650Z,0.40
2023-04-15T10:23:06.895Z,0.30
2023-04-15T10:25:54.973Z,1.60
2023-04-15T10:28:43.408Z,0.47
2023-04-15T10:31:30.076Z,0.50
2023-04-15T10:34:16.218Z,0.25
2023-04-15T10:37:03.966Z,0.50
2023-04-15T10:39:49.436Z,0.63
2023-04-15T10:42:35.671Z,1.77
2023-04-15T10:45:21.368Z,0.63
2023-04-15T10:48:09.249Z,0.20
2023-04-15T10:51:02.600Z,1.65
2023-04-15T10:53:48.211Z,0.25
2023-04-15T10:56:33.957Z,0.98
2023-04-15T10:59:21.427Z,0.47
2023-04-15T11:02:08.349Z,1.92
2023-04-15T11:04:58.785Z,0.15
2023-04-15T11:07:51.573Z,0.50
2023-04-15T11:10:36.955Z,0.40
2023-04-15T11:13:23.832Z,0.85
2023-04-15T11:16:12.715Z,0.40
2023-04-15T11:18:58.189Z,0.35
2023-04-15T11:21:43.646Z,0.40
2023-04-15T11:24:29.146Z,0.38
2023-04-15T11:27:22.081Z,0.40
2023-04-15T11:30:24.712Z,0.28
2023-04-15T11:33:12.517Z,1.33
2023-04-15T11:35:58.987Z,1.05
2023-04-15T11:38:47.422Z,0.35
2023-04-15T11:41:33.378Z,0.30
2023-04-15T11:44:19.295Z,0.30
2023-04-15T11:47:25.619Z,0.28
2023-04-15T11:50:23.943Z,0.30
2023-04-15T11:53:12.294Z,0.28
2023-04-15T11:55:57.781Z,0.22
2023-04-15T11:58:44.755Z,0.20
2023-04-15T12:01:39.518Z,0.40
2023-04-15T12:04:25.925Z,0.22
2023-04-15T12:07:12.687Z,1.05
2023-04-15T12:09:58.396Z,0.50
2023-04-15T12:12:43.904Z,2.47
2023-04-15T12:15:29.609Z,1.20
2023-04-15T12:18:19.314Z,0.20
2023-04-15T12:21:11.091Z,0.28
2023-04-15T12:23:58.025Z,0.32
2023-04-15T12:26:49.424Z,0.70
2023-04-15T12:29:36.694Z,0.30
2023-04-15T12:32:23.820Z,0.60
2023-04-15T12:35:09.583Z,0.45
2023-04-15T12:37:54.922Z,0.75
2023-04-15T12:40:40.747Z,0.40
2023-04-15T12:43:26.354Z,0.52
2023-04-15T12:46:11.711Z,0.30
2023-04-15T12:48:57.428Z,0.52
2023-04-15T12:51:43.193Z,0.50
2023-04-15T12:54:29.648Z,0.40
2023-04-15T12:57:14.913Z,0.47
2023-04-15T13:00:00.755Z,1.67
2023-04-15T13:02:46.218Z,0.40
2023-04-15T13:05:31.731Z,0.82
2023-04-15T13:08:17.088Z,0.50
2023-04-15T13:11:02.280Z,1.52
2023-04-15T13:13:48.219Z,0.40
2023-04-15T13:16:34.602Z,0.50
2023-04-15T13:19:19.955Z,0.40
2023-04-15T13:22:05.778Z,0.40
2023-04-15T13:24:51.615Z,0.75
2023-04-15T13:27:36.900Z,0.50
2023-04-15T13:30:22.582Z,0.70
2023-04-15T13:33:08.275Z,1.08
2023-04-15T13:35:53.889Z,0.40
2023-04-15T13:38:39.439Z,0.40
2023-04-15T13:41:24.851Z,1.52
2023-04-15T13:44:10.164Z,0.50
2023-04-15T13:46:55.751Z,0.35
2023-04-15T13:49:41.234Z,1.58
2023-04-15T13:52:26.796Z,0.70
2023-04-15T13:55:19.600Z,0.57
2023-04-15T13:58:09.209Z,0.80
2023-04-15T14:00:54.589Z,0.63
2023-04-15T14:03:40.413Z,0.70
2023-04-15T14:06:27.339Z,0.77
2023-04-15T14:09:12.845Z,1.48
2023-04-15T14:12:00.025Z,2.72
2023-04-15T14:14:46.295Z,1.05
2023-04-15T14:17:33.493Z,0.85
2023-04-15T14:20:18.815Z,1.67
2023-04-15T14:23:04.584Z,0.85
2023-04-15T14:25:51.116Z,1.50
2023-04-15T14:28:38.538Z,1.63
2023-04-15T14:31:24.032Z,0.50
2023-04-15T14:34:09.516Z,1.58
2023-04-15T14:36:55.169Z,0.60
2023-04-15T14:39:41.064Z,0.77
2023-04-15T14:42:26.711Z,2.10
2023-04-15T14:45:12.533Z,0.50
2023-04-15T14:47:58.037Z,2.22
2023-04-15T14:50:43.952Z,2.33
2023-04-15T14:53:29.768Z,0.82
2023-04-15T14:56:15.026Z,0.80
2023-04-15T14:59:00.525Z,0.30
2023-04-15T15:01:46.769Z,1.98
2023-04-15T15:04:33.448Z,0.75
2023-04-15T15:07:19.368Z,0.40
2023-04-15T15:10:06.173Z,0.80
2023-04-15T15:12:51.536Z,1.58
2023-04-15T15:15:38.244Z,1.02
2023-04-15T15:18:25.500Z,0.40
2023-04-15T15:21:11.072Z,1.50
2023-04-15T15:23:56.482Z,1.42
2023-04-15T15:26:42.399Z,0.73
2023-04-15T15:29:27.966Z,1.38
2023-04-15T15:32:13.331Z,0.95
2023-04-15T15:34:58.752Z,1.00
2023-04-15T15:37:45.588Z,0.90
2023-04-15T15:40:31.442Z,0.70
2023-04-15T15:43:16.929Z,0.70
2023-04-15T15:46:03.284Z,0.60
2023-04-15T15:48:48.900Z,0.60
2023-04-15T15:51:34.542Z,0.45
2023-04-15T15:54:19.748Z,0.60
2023-04-15T15:57:05.396Z,0.57
2023-04-15T16:00:00.732Z,0.75
2023-04-15T16:05:47.840Z,0.73
2023-04-15T16:08:33.459Z,0.85
2023-04-15T16:11:19.088Z,0.85
2023-04-15T16:14:04.776Z,0.50
2023-04-15T16:16:50.301Z,0.45
2023-04-15T16:19:35.470Z,0.45
2023-04-15T16:22:21.148Z,1.08
2023-04-15T16:25:07.312Z,0.98
2023-04-15T16:28:01.432Z,0.60
2023-04-15T16:30:51.533Z,0.55
2023-04-15T16:33:37.984Z,1.13
2023-04-15T16:36:23.425Z,0.80
2023-04-15T16:39:09.014Z,1.02
2023-04-15T16:41:54.391Z,1.85
2023-04-15T16:44:39.979Z,0.65
2023-04-15T16:47:25.445Z,0.73
2023-04-15T16:50:11.134Z,0.57
2023-04-15T16:52:56.726Z,0.73
2023-04-15T16:55:42.239Z,2.70
2023-04-15T16:58:28.922Z,0.98
2023-04-15T17:01:14.746Z,1.05
2023-04-15T17:04:00.577Z,0.73
2023-04-15T17:06:46.440Z,0.70
2023-04-15T17:09:32.280Z,1.10
2023-04-15T17:12:17.650Z,0.70
2023-04-15T17:15:03.260Z,0.70
2023-04-15T17:17:49.030Z,0.60
2023-04-15T17:20:34.733Z,1.42
2023-04-15T17:23:20.306Z,0.85
2023-04-15T17:26:05.943Z,0.98
2023-04-15T17:28:51.791Z,0.90
2023-04-15T17:31:37.140Z,1.00
2023-04-15T17:34:22.811Z,1.75
2023-04-15T17:37:07.974Z,1.00
2023-04-15T17:39:53.472Z,0.95
2023-04-15T17:42:39.028Z,0.88
2023-04-15T17:45:24.565Z,0.90
2023-04-15T17:48:10.401Z,0.52
2023-04-15T17:50:55.755Z,0.68
2023-04-15T17:53:41.762Z,1.10
2023-04-15T17:56:29.274Z,0.60
2023-04-15T17:59:15.548Z,0.88
2023-04-15T18:02:01.147Z,0.80
2023-04-15T18:04:46.982Z,0.70
2023-04-15T18:07:32.813Z,1.42
2023-04-15T18:10:18.591Z,2.10
2023-04-15T18:13:03.859Z,1.80
2023-04-15T18:15:50.857Z,1.70
2023-04-15T18:18:36.138Z,1.85
2023-04-15T18:21:21.751Z,2.53
2023-04-15T18:24:07.729Z,3.03
2023-04-15T18:26:53.825Z,1.48
2023-04-15T18:29:39.569Z,2.50
2023-04-15T18:32:24.927Z,2.33
2023-04-15T18:35:10.397Z,1.80
2023-04-15T18:37:58.705Z,1.60
2023-04-15T18:40:44.185Z,2.60
2023-04-15T18:43:29.783Z,2.28
2023-04-15T18:46:15.431Z,2.00
2023-04-15T18:49:00.975Z,3.17
2023-04-15T18:51:46.515Z,2.25
2023-04-15T18:54:31.852Z,8.30
2023-04-15T18:57:22.711Z,4.82
2023-04-15T19:00:12.076Z,5.03
2023-04-15T19:02:57.482Z,3.30
2023-04-15T19:05:42.874Z,2.88
2023-04-15T19:08:29.708Z,2.75
2023-04-15T19:11:15.726Z,2.13
2023-04-15T19:14:01.561Z,2.53
2023-04-15T19:16:47.184Z,2.70
2023-04-15T19:19:32.880Z,2.08
2023-04-15T19:22:18.276Z,2.05
2023-04-15T19:25:07.031Z,2.20
2023-04-15T19:27:52.673Z,3.13
2023-04-15T19:30:38.409Z,2.25
2023-04-15T19:33:24.503Z,2.20
2023-04-15T19:36:09.725Z,1.15
2023-04-15T19:38:55.332Z,1.75
2023-04-15T19:41:40.765Z,1.95
2023-04-15T19:44:26.547Z,1.33
2023-04-15T19:47:12.022Z,3.15
2023-04-15T19:49:57.383Z,1.73
2023-04-15T19:52:42.994Z,1.50
2023-04-15T19:55:28.586Z,1.77
2023-04-15T19:58:14.521Z,2.47
2023-04-15T20:01:01.422Z,3.15
2023-04-15T20:03:46.966Z,1.92
2023-04-15T20:06:32.773Z,1.70
2023-04-15T20:09:18.069Z,1.90
2023-04-15T20:12:48.438Z,1.70
2023-04-15T20:15:09.641Z,1.70
2023-04-15T20:17:55.216Z,1.95
2023-04-15T20:20:40.959Z,2.10
2023-04-15T20:23:26.526Z,3.40
2023-04-15T20:26:12.197Z,3.17
2023-04-15T20:28:58.939Z,1.73
2023-04-15T20:31:44.199Z,2.25
2023-04-15T20:34:29.612Z,2.45
2023-04-15T20:37:14.875Z,1.83
2023-04-15T20:40:01.685Z,1.92
2023-04-15T20:42:47.272Z,2.30
2023-04-15T20:45:32.965Z,1.40
2023-04-15T20:48:19.256Z,1.63
2023-04-15T20:51:04.767Z,2.67
2023-04-15T20:53:50.227Z,10.10
2023-04-15T20:56:35.772Z,4.95
2023-04-15T20:59:21.161Z,2.75
2023-04-15T21:02:07.108Z,4.18
2023-04-15T21:04:52.566Z,2.97
2023-04-15T21:07:38.152Z,2.20
2023-04-15T21:10:23.615Z,4.20
2023-04-15T21:13:09.430Z,2.20
2023-04-15T21:15:54.680Z,2.30
2023-04-15T21:18:40.095Z,2.28
2023-04-15T21:21:27.075Z,2.22
2023-04-15T21:24:12.543Z,1.58
2023-04-15T21:26:58.469Z,2.10
2023-04-15T21:29:44.177Z,2.20
2023-04-15T21:32:30.727Z,2.30
2023-04-15T21:35:16.484Z,3.22
2023-04-15T21:38:01.944Z,2.22
2023-04-15T21:40:50.367Z,2.00
2023-04-15T21:43:37.141Z,1.80
2023-04-15T21:46:25.617Z,2.38
2023-04-15T21:49:20.678Z,2.47
2023-04-15T21:52:06.288Z,2.55
2023-04-15T21:54:51.741Z,2.72
2023-04-15T21:57:37.221Z,2.75
2023-04-15T22:00:23.666Z,5.43
2023-04-15T22:03:09.494Z,3.15
2023-04-15T22:05:55.012Z,1.63
2023-04-15T22:08:54.836Z,1.60
2023-04-15T22:11:42.933Z,1.63
2023-04-15T22:14:30.080Z,1.73
2023-04-15T22:17:15.430Z,2.20
2023-04-15T22:20:01.009Z,1.85
2023-04-15T22:22:46.447Z,2.13
2023-04-15T22:25:31.947Z,1.55
2023-04-15T22:28:17.435Z,1.60
2023-04-15T22:31:03.129Z,1.77
2023-04-15T22:33:48.679Z,1.98
2023-04-15T22:36:34.154Z,1.77
2023-04-15T22:39:20.523Z,2.53
2023-04-15T22:42:05.894Z,2.47
2023-04-15T22:44:51.730Z,3.20
2023-04-15T22:47:36.977Z,1.60
2023-04-15T22:50:22.366Z,1.52
2023-04-15T22:53:07.943Z,1.80
2023-04-15T22:55:54.015Z,1.75
2023-04-15T22:58:39.675Z,2.50
2023-04-15T23:01:24.863Z,1.85
2023-04-15T23:04:10.943Z,2.72
2023-04-15T23:07:11.866Z,2.15
2023-04-15T23:09:57.797Z,1.90
2023-04-15T23:12:43.395Z,1.90
2023-04-15T23:15:29.035Z,2.78
2023-04-15T23:18:14.444Z,2.53
2023-04-15T23:20:59.922Z,2.45
2023-04-15T23:23:45.498Z,3.00
2023-04-15T23:26:31.156Z,3.30
2023-04-15T23:29:16.532Z,4.57
2023-04-15T23:32:01.916Z,3.30
2023-04-15T23:34:47.810Z,3.65
2023-04-15T23:37:32.886Z,2.50
2023-04-15T23:40:18.304Z,2.00
2023-04-15T23:43:03.833Z,2.13
2023-04-15T23:45:49.473Z,2.40
2023-04-15T23:48:35.424Z,2.35
2023-04-15T23:51:21.225Z,2.72
2023-04-15T23:54:06.823Z,2.00
2023-04-15T23:56:52.476Z,2.13
2023-04-15T23:59:37.919Z,2.95
